Time;durP1;ratioP1;P1;durP2;ratioP2;P2;SDS_P1;SDS_P2;PMS_P1;PMS_P2;Temp;Humidity;BMP_temperature;BMP_pressure;BME280_temperature;BME280_humidity;BME280_pressure;Samples;Min_cycle;Max_cycle;Signal;HPM_P1;HPM_P2
2023/05/25 00:02:23;;;;;;;5.88;4.18;;;;;;;22.01;52.63;96301.06;5033428;28;20111;-33
2023/05/25 00:04:49;;;;;;;6.20;3.75;;;;;;;21.95;53.16;96299.56;5033347;28;20036;-33
2023/05/25 00:07:15;;;;;;;7.00;3.83;;;;;;;21.90;53.41;96295.53;5033613;28;20048;-33
2023/05/25 00:09:43;;;;;;;7.18;3.80;;;;;;;21.97;53.20;96291.53;5033284;28;20132;-33
2023/05/25 00:12:09;;;;;;;5.45;4.18;;;;;;;22.00;52.80;96296.84;5032982;28;20018;-33
2023/05/25 00:14:34;;;;;;;5.13;3.50;;;;;;;21.88;53.10;96283.53;5047794;28;20439;-33
2023/05/25 00:17:02;;;;;;;4.80;3.40;;;;;;;21.93;52.87;96289.03;5045686;28;20025;-33
2023/05/25 00:19:31;;;;;;;5.82;3.65;;;;;;;21.81;53.05;96288.28;5039768;28;20029;-33
2023/05/25 00:22:00;;;;;;;4.53;3.40;;;;;;;21.86;52.55;96292.31;5037449;28;20017;-33
2023/05/25 00:24:27;;;;;;;9.25;3.72;;;;;;;21.86;53.07;96292.31;5035247;28;20365;-33
2023/05/25 00:26:53;;;;;;;4.78;3.05;;;;;;;21.92;52.56;96295.03;5024697;28;20023;-33
2023/05/25 00:29:18;;;;;;;4.95;3.40;;;;;;;21.76;52.96;96300.09;5033007;28;20025;-33
2023/05/25 00:31:43;;;;;;;5.03;3.50;;;;;;;21.69;53.08;96300.59;5036261;28;20036;-33
2023/05/25 00:34:09;;;;;;;8.93;3.60;;;;;;;21.79;52.84;96304.59;5036383;28;20017;-33
2023/05/25 00:36:34;;;;;;;9.40;3.60;;;;;;;21.80;52.86;96303.34;5036117;28;20086;-33
2023/05/25 00:39:00;;;;;;;7.38;3.65;;;;;;;21.76;52.93;96307.63;5050885;28;20377;-33
2023/05/25 00:41:26;;;;;;;6.82;3.28;;;;;;;21.67;53.36;96296.84;5042078;28;20465;-33
2023/05/25 00:43:51;;;;;;;11.23;4.03;;;;;;;21.73;53.12;96305.88;5038673;28;20026;-33
2023/05/25 00:46:17;;;;;;;7.13;4.00;;;;;;;21.85;53.22;96302.59;5043210;28;20018;-33
2023/05/25 00:48:43;;;;;;;6.60;3.58;;;;;;;21.91;52.88;96304.59;5036544;28;20481;-33
2023/05/25 00:51:09;;;;;;;6.35;3.83;;;;;;;21.87;53.03;96299.34;5036348;28;20059;-33
2023/05/25 00:53:38;;;;;;;5.97;3.97;;;;;;;21.81;52.73;96295.81;5035741;28;20045;-33
2023/05/25 00:56:31;;;;;;;6.93;3.65;;;;;;;21.87;52.87;96302.09;5043721;28;20032;-33
2023/05/25 00:59:02;;;;;;;5.22;3.70;;;;;;;21.97;52.65;96294.28;5035610;28;20033;-33
2023/05/25 01:01:32;;;;;;;5.65;3.45;;;;;;;21.83;52.67;96294.06;5036238;28;20021;-33
2023/05/25 01:03:59;;;;;;;5.95;3.50;;;;;;;21.65;53.42;96294.56;5042884;28;20435;-33
2023/05/25 01:06:28;;;;;;;5.47;3.40;;;;;;;21.81;52.73;96301.34;5038303;28;20100;-33
2023/05/25 01:08:59;;;;;;;7.90;4.13;;;;;;;21.75;53.24;96295.84;5040140;28;20027;-33
2023/05/25 01:11:31;;;;;;;6.40;3.47;;;;;;;21.75;52.81;96293.09;5043056;28;20076;-33
2023/05/25 01:13:57;;;;;;;6.47;3.63;;;;;;;21.83;52.82;96282.28;5041475;28;20080;-33
2023/05/25 01:16:24;;;;;;;7.75;3.55;;;;;;;21.73;52.82;96290.06;5037218;28;20033;-33
2023/05/25 01:18:51;;;;;;;10.15;4.22;;;;;;;21.72;53.04;96287.81;5033298;28;20025;-33
2023/05/25 01:21:40;;;;;;;4.50;3.40;;;;;;;21.70;53.01;96290.31;5035489;28;20060;-33
2023/05/25 01:24:21;;;;;;;6.13;3.50;;;;;;;21.83;52.26;96294.06;5030755;28;20021;-33
2023/05/25 01:26:56;;;;;;;7.10;3.55;;;;;;;21.75;52.78;96286.81;5036048;28;20020;-33
2023/05/25 01:29:24;;;;;;;5.47;3.88;;;;;;;21.67;52.95;96291.31;5042163;28;20079;-33
2023/05/25 01:31:52;;;;;;;7.50;4.00;;;;;;;21.55;53.04;96289.81;5037473;28;20021;-33
2023/05/25 01:34:19;;;;;;;8.25;3.88;;;;;;;21.60;53.44;96292.59;5040203;28;20025;-33
2023/05/25 01:36:45;;;;;;;4.65;3.40;;;;;;;21.69;52.57;96289.56;5043541;28;20052;-33
2023/05/25 01:39:11;;;;;;;6.18;3.25;;;;;;;21.90;52.36;96292.03;5041953;28;20052;-33
2023/05/25 01:41:37;;;;;;;8.20;3.78;;;;;;;21.79;52.61;96293.56;5034612;28;20025;-35
2023/05/25 01:44:03;;;;;;;7.05;3.80;;;;;;;21.75;52.97;96293.09;5042666;28;20039;-33
2023/05/25 01:46:37;;;;;;;5.53;3.40;;;;;;;21.59;53.57;96291.09;5035270;28;20488;-33
2023/05/25 01:49:48;;;;;;;7.80;3.67;;;;;;;21.61;53.55;96288.56;5035144;28;20092;-33
2023/05/25 01:52:25;;;;;;;6.38;3.47;;;;;;;21.70;53.41;96291.06;5048841;28;20041;-31
2023/05/25 01:54:53;;;;;;;7.65;3.50;;;;;;;21.54;53.69;96291.81;5042119;28;20021;-33
2023/05/25 01:57:21;;;;;;;6.82;3.53;;;;;;;21.43;53.66;96294.59;5029978;28;20120;-33
2023/05/25 01:59:47;;;;;;;7.63;3.47;;;;;;;21.55;53.80;96289.81;5039218;28;20031;-33
2023/05/25 02:02:18;;;;;;;6.03;3.60;;;;;;;21.55;53.92;96293.34;5041960;28;20067;-33
2023/05/25 02:04:44;;;;;;;5.55;3.83;;;;;;;21.64;53.46;96297.84;5034954;28;20026;-33
2023/05/25 02:07:10;;;;;;;6.40;3.88;;;;;;;21.65;53.50;96297.34;5034944;28;20400;-33
2023/05/25 02:09:35;;;;;;;8.30;3.90;;;;;;;21.64;53.54;96293.06;5034912;28;20017;-33
2023/05/25 02:12:01;;;;;;;7.15;3.80;;;;;;;21.49;53.71;96300.88;5034925;28;20487;-33
2023/05/25 02:14:27;;;;;;;5.57;3.60;;;;;;;21.41;53.98;96299.84;5042133;28;20476;-33
2023/05/25 02:16:52;;;;;;;10.20;3.70;;;;;;;21.53;53.64;96298.59;5039082;28;20033;-33
2023/05/25 02:19:18;;;;;;;8.73;3.92;;;;;;;21.48;53.34;96300.13;5044058;28;20025;-33
2023/05/25 02:21:43;;;;;;;7.50;3.70;;;;;;;21.51;53.38;96301.84;5047176;28;20025;-33
2023/05/25 02:24:09;;;;;;;8.10;3.80;;;;;;;21.49;53.77;96296.09;5041721;28;20123;-33
2023/05/25 02:26:36;;;;;;;6.28;3.72;;;;;;;21.56;53.47;96296.84;5034192;28;20025;-33
2023/05/25 02:29:02;;;;;;;4.88;3.75;;;;;;;21.46;53.60;96302.63;5034444;28;20040;-34
2023/05/25 02:31:27;;;;;;;6.68;3.80;;;;;;;21.43;53.89;96306.38;5034003;28;20033;-33
2023/05/25 02:33:53;;;;;;;6.53;3.53;;;;;;;21.38;54.19;96298.13;5034540;28;20021;-33
2023/05/25 02:36:18;;;;;;;5.90;3.63;;;;;;;21.54;53.88;96297.34;5034237;28;20432;-32
2023/05/25 02:38:46;;;;;;;6.70;4.00;;;;;;;21.39;54.35;96300.34;5041927;28;20052;-33
2023/05/25 02:41:11;;;;;;;6.00;3.65;;;;;;;21.41;53.81;96289.56;5039768;28;20037;-33
2023/05/25 02:43:38;;;;;;;5.32;3.72;;;;;;;21.28;54.28;96283.78;5041134;28;20025;-33
2023/05/25 02:46:03;;;;;;;6.30;3.95;;;;;;;21.39;54.24;96294.06;5048074;28;20025;-33
2023/05/25 02:48:29;;;;;;;7.40;3.63;;;;;;;21.47;53.90;96300.63;5038190;28;20119;-34
2023/05/25 02:50:54;;;;;;;5.15;4.00;;;;;;;21.48;53.68;96294.59;5036011;28;20059;-33
2023/05/25 02:53:20;;;;;;;7.40;3.75;;;;;;;21.51;53.61;96298.38;5033260;28;20041;-33
2023/05/25 02:55:45;;;;;;;7.90;3.83;;;;;;;21.57;53.53;96296.34;5040441;28;20044;-33
2023/05/25 02:58:10;;;;;;;5.57;3.95;;;;;;;21.42;54.35;96296.59;5034865;28;20071;-35
2023/05/25 03:00:36;;;;;;;7.60;4.00;;;;;;;21.45;53.69;96295.59;5037870;28;20084;-33
2023/05/25 03:03:02;;;;;;;5.55;3.25;;;;;;;21.48;53.73;96296.59;5036227;28;20460;-33
2023/05/25 03:05:27;;;;;;;6.57;4.32;;;;;;;21.40;53.84;96306.63;5041282;28;20017;-33
2023/05/25 03:07:53;;;;;;;8.50;3.97;;;;;;;21.26;54.22;96302.13;5037991;28;20031;-33
2023/05/25 03:10:18;;;;;;;6.13;3.70;;;;;;;21.30;54.21;96306.13;5036027;28;20107;-33
2023/05/25 03:12:43;;;;;;;6.35;4.00;;;;;;;21.39;53.86;96305.13;5040161;28;20024;-33
2023/05/25 03:15:12;;;;;;;6.15;4.20;;;;;;;21.58;53.61;96300.63;5033498;28;20064;-33
2023/05/25 03:17:37;;;;;;;5.47;4.10;;;;;;;21.64;53.54;96301.34;5034325;28;20099;-33
2023/05/25 03:20:03;;;;;;;6.22;3.88;;;;;;;21.41;54.14;96303.38;5040440;28;20167;-33
2023/05/25 03:22:28;;;;;;;5.60;3.65;;;;;;;21.44;54.25;96307.88;5033836;28;20076;-33
2023/05/25 03:24:54;;;;;;;5.60;4.25;;;;;;;21.52;53.92;96303.38;5031508;28;20029;-33
2023/05/25 03:27:19;;;;;;;5.00;3.80;;;;;;;21.45;53.87;96309.41;5033621;28;20032;-33
2023/05/25 03:29:47;;;;;;;6.57;3.92;;;;;;;21.38;54.40;96303.63;5035382;28;20520;-33
2023/05/25 03:32:12;;;;;;;5.70;3.60;;;;;;;21.27;54.28;96300.84;5038720;28;20029;-33
2023/05/25 03:34:39;;;;;;;6.03;4.05;;;;;;;21.31;54.16;96309.63;5040998;28;20116;-33
2023/05/25 03:37:04;;;;;;;8.77;3.67;;;;;;;21.23;54.65;96308.63;5044158;28;20509;-33
2023/05/25 03:39:30;;;;;;;4.97;3.75;;;;;;;21.41;54.01;96316.41;5037290;28;20069;-32
2023/05/25 03:41:56;;;;;;;7.65;3.85;;;;;;;21.26;54.81;96313.91;5032385;28;20038;-33
2023/05/25 03:44:22;;;;;;;5.03;3.70;;;;;;;21.43;54.29;96317.41;5033316;28;20026;-33
2023/05/25 03:46:47;;;;;;;4.10;3.67;;;;;;;21.36;54.46;96317.91;5033088;28;20017;-33
2023/05/25 03:49:13;;;;;;;5.78;4.03;;;;;;;21.37;54.43;96313.91;5026538;28;20461;-32
2023/05/25 03:51:40;;;;;;;8.18;4.07;;;;;;;21.23;54.34;96314.16;5033488;28;20028;-32
2023/05/25 03:54:05;;;;;;;8.20;3.83;;;;;;;21.49;53.69;96323.69;5040715;28;20048;-35
2023/05/25 03:56:31;;;;;;;4.57;3.50;;;;;;;21.48;53.53;96329.72;5037789;28;20021;-33
2023/05/25 03:58:56;;;;;;;7.78;3.83;;;;;;;21.63;53.48;96326.72;5042755;28;20017;-33
2023/05/25 04:01:25;;;;;;;6.35;3.67;;;;;;;21.61;53.78;96320.94;5040378;28;20025;-33
2023/05/25 04:03:51;;;;;;;7.72;3.60;;;;;;;21.46;53.94;96329.47;5033140;28;20052;-33
2023/05/25 04:06:18;;;;;;;6.28;3.83;;;;;;;21.51;53.76;96325.97;5037242;28;20024;-33
2023/05/25 04:08:44;;;;;;;6.72;3.80;;;;;;;21.65;53.45;96333.22;5036934;28;20017;-33
2023/05/25 04:11:10;;;;;;;5.38;3.78;;;;;;;21.50;54.24;96330.72;5036929;28;20029;-33
2023/05/25 04:13:35;;;;;;;4.20;3.50;;;;;;;21.65;53.42;96332.47;5037245;28;20095;-33
2023/05/25 04:16:01;;;;;;;4.60;3.55;;;;;;;21.60;53.51;96338.75;5036953;28;20018;-33
2023/05/25 04:18:26;;;;;;;6.32;3.45;;;;;;;21.49;53.87;96340.25;5038708;28;20029;-33
2023/05/25 04:20:55;;;;;;;6.25;3.53;;;;;;;21.68;53.52;96348.03;5047159;28;20025;-33
2023/05/25 04:23:20;;;;;;;5.82;3.72;;;;;;;21.59;53.43;96346.28;5039107;28;20049;-33
2023/05/25 04:25:46;;;;;;;8.23;4.15;;;;;;;21.58;53.93;96352.28;5044262;28;20546;-33
2023/05/25 04:28:11;;;;;;;6.45;3.60;;;;;;;21.64;53.58;96347.50;5036714;28;20540;-33
2023/05/25 04:30:38;;;;;;;5.90;3.72;;;;;;;21.56;53.63;96346.50;5036914;28;20350;-33
2023/05/25 04:33:04;;;;;;;7.50;3.25;;;;;;;21.63;53.56;96355.06;5036712;28;20385;-33
2023/05/25 04:35:30;;;;;;;11.68;3.90;;;;;;;21.58;53.37;96358.56;5036311;28;20092;-32
2023/05/25 04:37:56;;;;;;;7.70;4.07;;;;;;;21.64;54.37;96358.56;5051301;28;20060;-32
2023/05/25 04:40:21;;;;;;;7.90;3.50;;;;;;;21.63;54.74;96363.34;5035249;28;20068;-33
2023/05/25 04:42:47;;;;;;;6.68;3.90;;;;;;;21.62;55.13;96359.06;5036315;28;20083;-33
2023/05/25 04:45:16;;;;;;;6.20;3.47;;;;;;;21.51;54.67;96357.03;5043088;28;20033;-32
2023/05/25 04:47:42;;;;;;;5.68;3.55;;;;;;;21.43;54.32;96356.03;5043810;28;20073;-33
2023/05/25 04:50:09;;;;;;;6.05;3.72;;;;;;;21.55;54.04;96362.31;5043686;28;20029;-33
2023/05/25 04:52:35;;;;;;;6.97;3.70;;;;;;;21.61;53.89;96354.81;5036215;28;20129;-33
2023/05/25 04:55:01;;;;;;;5.18;3.35;;;;;;;21.60;54.25;96361.56;5037067;28;20100;-34
2023/05/25 04:57:27;;;;;;;6.07;3.13;;;;;;;21.50;54.50;96360.31;5042747;28;20537;-33
2023/05/25 04:59:53;;;;;;;5.22;3.40;;;;;;;21.67;53.69;96365.84;5036318;28;20457;-33
2023/05/25 05:02:19;;;;;;;4.55;3.28;;;;;;;21.58;54.12;96369.59;5043077;28;20024;-33
2023/05/25 05:04:44;;;;;;;7.57;3.60;;;;;;;21.52;54.73;96360.56;5036237;28;20479;-33
2023/05/25 05:07:10;;;;;;;7.13;3.60;;;;;;;21.57;54.05;96364.56;5036292;28;20028;-33
2023/05/25 05:09:36;;;;;;;8.63;4.32;;;;;;;21.70;54.13;96368.34;5043077;28;20105;-34
2023/05/25 05:12:02;;;;;;;7.63;3.90;;;;;;;21.63;53.84;96371.63;5042329;28;20024;-33
2023/05/25 05:14:28;;;;;;;7.32;3.58;;;;;;;21.50;54.95;96372.13;5037646;28;20022;-33
2023/05/25 05:16:53;;;;;;;6.05;3.50;;;;;;;21.61;54.89;96378.88;5040352;28;20017;-33
2023/05/25 05:19:19;;;;;;;6.03;4.22;;;;;;;21.84;54.26;96377.63;5042118;28;20036;-33
2023/05/25 05:21:45;;;;;;;7.60;3.88;;;;;;;21.63;54.48;96377.13;5035506;28;20025;-33
2023/05/25 05:24:10;;;;;;;6.88;3.50;;;;;;;21.67;54.54;96379.63;5035728;28;20044;-33
2023/05/25 05:26:38;;;;;;;5.85;3.40;;;;;;;21.64;54.76;96373.09;5035594;28;20017;-33
2023/05/25 05:29:03;;;;;;;7.38;3.85;;;;;;;21.77;54.52;96387.16;5033937;28;20476;-33
2023/05/25 05:31:30;;;;;;;6.72;4.03;;;;;;;21.78;54.03;96383.16;5035201;28;20033;-33
2023/05/25 05:33:56;;;;;;;6.20;3.70;;;;;;;21.74;54.18;96385.44;5044954;28;20025;-33
2023/05/25 05:36:21;;;;;;;8.15;3.83;;;;;;;21.56;55.13;96380.38;5039719;28;20025;-33
2023/05/25 05:38:47;;;;;;;4.00;3.58;;;;;;;21.62;54.74;96386.66;5034826;28;20048;-33
2023/05/25 05:41:13;;;;;;;5.30;3.42;;;;;;;21.60;55.17;96386.41;5042581;28;20378;-33
2023/05/25 05:43:41;;;;;;;7.85;4.30;;;;;;;21.66;55.16;96389.16;5035237;28;20032;-33
2023/05/25 05:46:08;;;;;;;7.30;3.13;;;;;;;21.66;55.19;96383.66;5035733;28;20108;-33
2023/05/25 05:48:33;;;;;;;5.88;3.80;;;;;;;21.66;55.30;96383.66;5035107;28;20049;-33
2023/05/25 05:50:58;;;;;;;6.57;3.67;;;;;;;21.75;55.28;96392.44;5035502;28;20504;-33
2023/05/25 05:53:24;;;;;;;9.80;3.58;;;;;;;21.77;55.84;96383.66;5038511;28;20045;-33
2023/05/25 05:55:53;;;;;;;4.40;3.42;;;;;;;21.68;55.91;96389.41;5044978;28;20017;-33
2023/05/25 05:58:18;;;;;;;4.60;3.47;;;;;;;21.73;55.90;96394.19;5035381;28;20078;-33
2023/05/25 06:00:43;;;;;;;4.85;3.35;;;;;;;21.74;56.24;96393.72;5047499;28;20025;-32
2023/05/25 06:03:09;;;;;;;6.22;3.45;;;;;;;21.79;55.85;96389.41;5036687;28;20023;-33
2023/05/25 06:05:34;;;;;;;6.32;3.55;;;;;;;21.82;55.81;96397.47;5034960;28;20457;-33
2023/05/25 06:08:00;;;;;;;6.28;3.50;;;;;;;21.77;56.51;96398.19;5034690;28;20021;-33
2023/05/25 06:10:25;;;;;;;5.80;3.53;;;;;;;21.77;56.77;96400.97;5035178;28;20021;-33
2023/05/25 06:12:51;;;;;;;6.15;3.08;;;;;;;21.91;56.10;96403.97;5034852;28;20025;-33
2023/05/25 06:15:17;;;;;;;8.27;3.80;;;;;;;21.88;55.99;96405.00;5034152;28;20064;-33
2023/05/25 06:17:42;;;;;;;5.68;3.88;;;;;;;21.80;56.32;96407.50;5027104;28;20049;-33
2023/05/25 06:20:08;;;;;;;4.45;3.17;;;;;;;21.88;55.95;96405.75;5034128;28;20389;-33
2023/05/25 06:22:34;;;;;;;6.13;3.72;;;;;;;21.82;56.95;96407.75;5042117;28;20025;-33
2023/05/25 06:25:00;;;;;;;6.88;4.50;;;;;;;21.68;57.67;96401.22;5034572;28;20322;-33
2023/05/25 06:27:25;;;;;;;6.10;4.10;;;;;;;21.69;57.71;96402.72;5034077;28;20060;-33
2023/05/25 06:29:51;;;;;;;5.32;3.47;;;;;;;21.91;56.40;96412.25;5034872;28;20032;-33
2023/05/25 06:32:16;;;;;;;4.03;3.33;;;;;;;21.94;56.56;96412.03;5034135;28;20381;-33
2023/05/25 06:34:42;;;;;;;6.38;3.90;;;;;;;21.81;56.76;96415.28;5034290;28;20381;-33
2023/05/25 06:37:07;;;;;;;8.50;4.05;;;;;;;21.96;56.09;96417.03;5034083;28;20025;-33
2023/05/25 06:39:32;;;;;;;7.35;3.92;;;;;;;21.97;55.85;96424.06;5034494;28;20059;-33
2023/05/25 06:41:58;;;;;;;5.57;3.30;;;;;;;22.04;56.25;96418.81;5041463;28;20075;-33
2023/05/25 06:44:23;;;;;;;6.20;3.33;;;;;;;21.96;56.11;96428.09;5039517;28;20121;-33
2023/05/25 06:46:48;;;;;;;4.57;3.20;;;;;;;22.10;55.78;96432.63;5036340;28;20017;-33
2023/05/25 06:49:14;;;;;;;6.10;3.70;;;;;;;22.05;56.00;96431.38;5041181;28;20485;-33
2023/05/25 06:51:39;;;;;;;6.97;4.43;;;;;;;22.13;55.77;96428.88;5034023;28;20033;-33
2023/05/25 06:54:07;;;;;;;6.55;3.75;;;;;;;22.06;56.15;96429.38;5033874;28;20159;-33
2023/05/25 06:56:32;;;;;;;5.85;3.78;;;;;;;22.24;55.67;96434.38;5041150;28;20025;-32
2023/05/25 06:58:59;;;;;;;5.63;4.15;;;;;;;22.15;55.90;96434.63;5034137;28;20041;-34
2023/05/25 07:01:24;;;;;;;4.72;3.55;;;;;;;22.21;55.62;96435.38;5040768;28;20027;-33
2023/05/25 07:03:50;;;;;;;12.05;4.20;;;;;;;22.23;55.33;96446.69;5033974;28;20059;-33
2023/05/25 07:06:16;;;;;;;4.65;3.75;;;;;;;22.21;55.51;96444.44;5035122;28;20397;-33
2023/05/25 07:08:41;;;;;;;8.18;3.80;;;;;;;22.27;55.59;96446.41;5040043;28;20117;-33
2023/05/25 07:11:09;;;;;;;4.40;3.65;;;;;;;22.33;55.27;96445.19;5040624;28;20445;-33
2023/05/25 07:13:35;;;;;;;4.95;3.67;;;;;;;22.27;55.23;96454.72;5047795;28;20378;-34
2023/05/25 07:16:00;;;;;;;5.97;3.83;;;;;;;22.00;56.24;96445.19;5033397;28;20060;-33
2023/05/25 07:18:26;;;;;;;6.97;4.10;;;;;;;22.24;55.74;96452.97;5034960;28;20072;-33
2023/05/25 07:20:52;;;;;;;9.48;3.50;;;;;;;22.06;55.92;96443.94;5040039;28;20461;-33
2023/05/25 07:23:17;;;;;;;7.25;3.95;;;;;;;22.13;56.42;96448.22;5033648;28;20021;-33
2023/05/25 07:25:43;;;;;;;9.95;4.68;;;;;;;22.15;55.94;96451.19;5032464;28;20023;-33
2023/05/25 07:28:08;;;;;;;6.65;4.05;;;;;;;22.31;56.21;96441.41;5034170;28;20431;-33
2023/05/25 07:30:34;;;;;;;8.18;3.90;;;;;;;22.16;56.62;96442.41;5037822;28;20021;-33
2023/05/25 07:32:59;;;;;;;9.25;3.70;;;;;;;22.11;56.71;96445.19;5047454;28;20033;-33
2023/05/25 07:35:25;;;;;;;8.98;4.30;;;;;;;22.20;56.63;96450.47;5040027;28;20025;-34
2023/05/25 07:38:01;;;;;;;6.70;3.97;;;;;;;22.17;56.68;96443.94;5042792;28;20423;-33
2023/05/25 07:40:26;;;;;;;6.93;4.22;;;;;;;22.15;56.33;96446.44;5040954;28;20025;-33
2023/05/25 07:42:52;;;;;;;7.03;4.10;;;;;;;22.17;56.20;96448.69;5044703;28;20021;-33
2023/05/25 07:45:18;;;;;;;5.78;3.60;;;;;;;22.14;56.18;96453.22;5037267;28;20021;-33
2023/05/25 07:47:43;;;;;;;5.80;4.13;;;;;;;22.18;56.07;96444.69;5037549;28;20175;-33
2023/05/25 07:50:09;;;;;;;8.57;4.72;;;;;;;22.23;56.09;96445.94;5037910;28;20456;-33
2023/05/25 07:52:34;;;;;;;5.18;3.75;;;;;;;22.24;56.04;96447.44;5036987;28;20049;-33
2023/05/25 07:55:00;;;;;;;9.77;4.05;;;;;;;22.27;56.03;96446.41;5044794;28;20098;-34
2023/05/25 07:57:25;;;;;;;4.78;3.80;;;;;;;22.12;56.77;96452.97;5041016;28;20100;-34
2023/05/25 07:59:51;;;;;;;6.57;3.97;;;;;;;22.21;56.12;96458.25;5041013;28;20024;-33
2023/05/25 08:02:16;;;;;;;5.03;4.00;;;;;;;22.13;56.23;96457.22;5037583;28;20696;-34
2023/05/25 08:04:42;;;;;;;5.30;3.80;;;;;;;22.19;56.17;96454.47;5037158;28;20025;-33
2023/05/25 08:07:07;;;;;;;4.78;4.20;;;;;;;22.24;56.56;96453.72;5036866;28;20067;-33
2023/05/25 08:09:33;;;;;;;4.50;3.60;;;;;;;22.22;56.75;96467.28;5037016;28;20017;-33
2023/05/25 08:11:58;;;;;;;8.15;3.90;;;;;;;22.27;56.22;96463.75;5037051;28;20108;-33
2023/05/25 08:14:24;;;;;;;5.57;4.10;;;;;;;22.26;56.65;96467.78;5037354;28;20025;-33
2023/05/25 08:16:50;;;;;;;5.95;3.95;;;;;;;22.31;56.35;96463.50;5041165;28;20024;-33
2023/05/25 08:19:16;;;;;;;6.25;4.07;;;;;;;22.37;56.14;96467.78;5044793;28;20025;-33
2023/05/25 08:21:41;;;;;;;4.38;3.45;;;;;;;22.33;56.10;96472.81;5043711;28;20044;-33
2023/05/25 08:24:07;;;;;;;5.53;3.60;;;;;;;22.29;56.39;96468.78;5043954;28;20784;-33
2023/05/25 08:26:35;;;;;;;4.88;3.75;;;;;;;22.28;56.01;96464.50;5043595;28;20048;-33
2023/05/25 08:29:04;;;;;;;4.97;3.63;;;;;;;22.37;55.87;96462.25;5036419;28;20059;-33
2023/05/25 08:31:33;;;;;;;6.63;3.55;;;;;;;22.34;56.54;96468.78;5034817;28;20033;-33
2023/05/25 08:34:00;;;;;;;5.22;3.72;;;;;;;22.32;55.92;96465.78;5027842;28;20028;-33
2023/05/25 08:36:26;;;;;;;5.82;3.70;;;;;;;22.33;55.56;96461.75;5036451;28;20100;-33
2023/05/25 08:38:52;;;;;;;5.22;3.85;;;;;;;22.34;55.06;96466.03;5043675;28;20028;-33
2023/05/25 08:41:20;;;;;;;7.93;3.85;;;;;;;22.28;55.39;96470.03;5036628;28;20017;-33
2023/05/25 08:43:45;;;;;;;5.82;3.35;;;;;;;22.32;55.25;96465.78;5036661;28;20071;-33
2023/05/25 08:46:12;;;;;;;5.43;3.70;;;;;;;22.39;54.71;96470.78;5043021;28;20374;-33
2023/05/25 08:48:37;;;;;;;8.85;4.18;;;;;;;22.45;54.51;96468.78;5042567;28;20377;-33
2023/05/25 08:51:07;;;;;;;6.63;3.90;;;;;;;22.41;54.06;96470.28;5035746;28;20079;-33
2023/05/25 08:53:38;;;;;;;7.57;3.22;;;;;;;22.43;53.75;96471.28;5036198;28;20048;-33
2023/05/25 08:56:17;;;;;;;5.32;3.45;;;;;;;22.38;53.99;96472.03;5036433;28;20026;-33
2023/05/25 08:58:51;;;;;;;5.55;3.75;;;;;;;22.49;53.33;96469.28;5036224;28;20535;-33
2023/05/25 09:01:18;;;;;;;6.78;3.50;;;;;;;22.48;53.62;96478.06;5043086;28;20029;-33
2023/05/25 09:03:45;;;;;;;5.32;3.70;;;;;;;22.44;52.90;96478.31;5035796;28;20049;-33
2023/05/25 09:06:11;;;;;;;4.88;3.83;;;;;;;22.43;52.97;96478.81;5036182;28;20017;-33
2023/05/25 09:08:38;;;;;;;6.50;3.47;;;;;;;22.44;53.00;96480.31;5042975;28;20036;-33
2023/05/25 09:11:05;;;;;;;4.57;3.67;;;;;;;22.46;52.84;96477.81;5042828;28;20461;-33
2023/05/25 09:13:31;;;;;;;6.38;3.80;;;;;;;22.57;53.85;96480.56;5038641;28;20426;-34
2023/05/25 09:15:57;;;;;;;8.23;4.55;;;;;;;22.49;54.25;96487.88;5040417;28;20048;-33
2023/05/25 09:18:23;;;;;;;6.40;4.28;;;;;;;22.49;54.51;96483.09;5036663;28;20068;-33
2023/05/25 09:20:49;;;;;;;5.47;3.88;;;;;;;22.45;54.77;96488.13;5042383;28;20056;-34
2023/05/25 09:23:14;;;;;;;6.25;3.83;;;;;;;22.54;54.92;96492.63;5035197;28;20552;-33
2023/05/25 09:25:40;;;;;;;7.20;4.72;;;;;;;22.56;54.82;96485.34;5035772;28;20017;-33
2023/05/25 09:28:09;;;;;;;6.45;4.30;;;;;;;22.53;54.94;96480.81;5033701;28;20377;-33
2023/05/25 09:30:35;;;;;;;6.82;3.65;;;;;;;22.63;55.43;96488.84;5035747;28;20401;-33
2023/05/25 09:33:17;;;;;;;6.28;4.32;;;;;;;22.65;55.19;96480.78;5035035;28;20021;-33
2023/05/25 09:35:44;;;;;;;4.63;3.63;;;;;;;22.67;55.53;96487.31;5036564;28;20026;-34
2023/05/25 09:38:13;;;;;;;6.32;4.20;;;;;;;22.69;54.72;96484.06;5049162;28;20428;-33
2023/05/25 09:40:40;;;;;;;5.75;4.30;;;;;;;22.65;54.99;96486.31;5041909;28;20029;-33
2023/05/25 09:43:05;;;;;;;7.72;4.45;;;;;;;22.67;54.38;96492.84;5042275;28;20021;-33
2023/05/25 09:45:31;;;;;;;4.93;3.70;;;;;;;22.70;53.57;96491.09;5035170;28;20021;-33
2023/05/25 09:47:58;;;;;;;7.70;3.83;;;;;;;22.71;53.72;96492.59;5035607;28;20060;-33
2023/05/25 09:50:26;;;;;;;7.30;4.32;;;;;;;22.68;53.25;96485.31;5034895;28;20090;-33
2023/05/25 09:52:57;;;;;;;4.18;3.35;;;;;;;22.74;53.22;96491.59;5034821;28;20052;-33
2023/05/25 09:55:22;;;;;;;8.35;4.38;;;;;;;22.76;53.29;96486.31;5028333;28;20026;-33
2023/05/25 09:57:53;;;;;;;8.45;3.50;;;;;;;22.79;52.25;96497.13;5035013;28;20022;-33
2023/05/25 10:00:18;;;;;;;6.85;3.78;;;;;;;22.80;52.46;96492.34;5035417;28;20017;-33
2023/05/25 10:02:44;;;;;;;6.40;3.60;;;;;;;22.83;51.25;96496.88;5041623;28;20021;-34
2023/05/25 10:05:10;;;;;;;5.00;3.45;;;;;;;22.82;50.50;96496.13;5042308;28;20100;-33
2023/05/25 10:07:39;;;;;;;8.32;3.65;;;;;;;22.87;50.91;96489.81;5034741;28;20025;-33
2023/05/25 10:10:09;;;;;;;6.68;3.55;;;;;;;22.83;50.31;96497.63;5034571;28;20477;-33
2023/05/25 10:12:35;;;;;;;6.00;3.30;;;;;;;22.85;50.38;96497.13;5040003;28;20434;-33
2023/05/25 10:15:03;;;;;;;5.18;3.58;;;;;;;22.77;49.87;96496.88;5034834;28;20025;-33
2023/05/25 10:17:32;;;;;;;6.90;3.75;;;;;;;22.81;50.87;96499.41;5034932;28;20473;-33
2023/05/25 10:19:59;;;;;;;6.50;3.75;;;;;;;22.89;50.82;96495.59;5034020;28;20040;-33
2023/05/25 10:22:45;;;;;;;4.50;3.70;;;;;;;22.88;50.91;96493.34;5041756;28;20393;-33
2023/05/25 10:25:22;;;;;;;6.63;4.10;;;;;;;22.87;51.04;96494.63;5040271;28;20033;-33
2023/05/25 10:27:53;;;;;;;6.38;3.80;;;;;;;22.94;50.28;96496.84;5048458;28;20021;-33
2023/05/25 10:30:18;;;;;;;5.03;3.67;;;;;;;23.00;49.85;96494.06;5034150;28;20025;-33
2023/05/25 10:32:45;;;;;;;5.03;3.83;;;;;;;22.90;49.73;96494.34;5034508;28;20048;-33
2023/05/25 10:35:12;;;;;;;7.32;4.30;;;;;;;22.97;49.44;96490.31;5033949;28;20028;-33
2023/05/25 10:37:38;;;;;;;4.32;3.10;;;;;;;23.00;48.61;96500.34;5034183;28;20051;-33
2023/05/25 10:40:07;;;;;;;4.53;3.75;;;;;;;22.99;48.08;96496.09;5026716;28;20025;-33
2023/05/25 10:42:35;;;;;;;6.00;3.70;;;;;;;22.93;48.63;96490.56;5040728;28;20035;-33
2023/05/25 10:45:04;;;;;;;5.18;3.60;;;;;;;22.99;49.05;96493.34;5041516;28;20045;-33
2023/05/25 10:47:29;;;;;;;4.85;3.75;;;;;;;23.01;49.08;96496.31;5041579;28;20163;-33
2023/05/25 10:49:57;;;;;;;11.10;3.88;;;;;;;23.00;49.45;96505.88;5041507;28;20111;-33
2023/05/25 10:52:30;;;;;;;6.13;3.60;;;;;;;23.10;49.36;96492.53;5037519;28;20021;-33
2023/05/25 10:55:00;;;;;;;7.05;3.80;;;;;;;23.06;49.96;96495.56;5034394;28;20021;-33
2023/05/25 10:57:26;;;;;;;5.65;3.45;;;;;;;23.14;48.65;96499.28;5027260;28;20052;-33
2023/05/25 10:59:58;;;;;;;5.32;3.42;;;;;;;23.09;47.95;96496.56;5033987;28;20025;-34
2023/05/25 11:02:27;;;;;;;6.15;3.60;;;;;;;23.15;47.90;96495.28;5026335;28;20116;-33
2023/05/25 11:05:24;;;;;;;4.72;3.72;;;;;;;23.06;48.17;96501.09;5034089;28;20022;-35
2023/05/25 11:07:57;;;;;;;6.57;3.60;;;;;;;23.04;48.20;96498.06;5028707;28;20035;-33
2023/05/25 11:10:40;;;;;;;;;;;;;;;23.01;48.68;96490.78;5041551;28;20118;-33
2023/05/25 11:13:30;;;;;;;5.93;3.70;;;;;;;23.03;48.40;96496.56;5040759;28;19908;-33
2023/05/25 11:16:19;;;;;;;3.92;3.45;;;;;;;22.95;48.51;96490.06;5035623;28;20025;-33
2023/05/25 11:18:58;;;;;;;6.32;3.22;;;;;;;22.92;48.47;96494.59;5037154;28;20017;-33
2023/05/25 11:21:26;;;;;;;4.45;3.63;;;;;;;23.00;47.77;96485.75;5031447;28;20396;-34
2023/05/25 11:24:05;;;;;;;5.65;3.45;;;;;;;22.99;47.13;96487.81;5033923;28;20028;-34
2023/05/25 11:26:34;;;;;;;3.97;3.47;;;;;;;22.93;47.46;96496.09;5040736;28;20103;-33
2023/05/25 11:29:14;;;;;;;6.07;3.60;;;;;;;23.04;47.43;96487.00;5033655;28;20100;-33
2023/05/25 11:31:40;;;;;;;5.53;3.30;;;;;;;22.93;48.02;96485.03;5033811;28;20025;-33
2023/05/25 11:34:05;;;;;;;7.28;3.35;;;;;;;23.00;48.92;96485.75;5037208;28;20028;-33
2023/05/25 11:36:33;;;;;;;7.35;3.65;;;;;;;23.01;49.18;96482.50;5036107;28;20032;-33